sensor_id;sensor_type;location;lat;lon;timestamp;P1;durP1;ratioP1;P2;durP2;ratioP2
34902;SDS011;21114;44.840;0.214;2024-01-10T00:00:16;6.53;;;4.65;;
34902;SDS011;21114;44.840;0.214;2024-01-10T00:02:42;5.38;;;4.18;;
34902;SDS011;21114;44.840;0.214;2024-01-10T00:05:08;5.85;;;3.50;;
34902;SDS011;21114;44.840;0.214;2024-01-10T00:07:34;5.68;;;3.92;;
34902;SDS011;21114;44.840;0.214;2024-01-10T00:10:01;5.38;;;4.22;;
34902;SDS011;21114;44.840;0.214;2024-01-10T00:12:28;8.55;;;4.15;;
34902;SDS011;21114;44.840;0.214;2024-01-10T00:14:58;6.00;;;4.35;;
34902;SDS011;21114;44.840;0.214;2024-01-10T00:17:24;4.80;;;4.30;;
34902;SDS011;21114;44.840;0.214;2024-01-10T00:19:50;6.38;;;4.13;;
34902;SDS011;21114;44.840;0.214;2024-01-10T00:22:16;5.10;;;3.67;;
34902;SDS011;21114;44.840;0.214;2024-01-10T00:24:42;5.43;;;3.83;;
34902;SDS011;21114;44.840;0.214;2024-01-10T00:27:08;5.03;;;3.42;;
34902;SDS011;21114;44.840;0.214;2024-01-10T00:29:35;5.53;;;3.75;;
34902;SDS011;21114;44.840;0.214;2024-01-10T00:32:01;6.05;;;4.15;;
34902;SDS011;21114;44.840;0.214;2024-01-10T00:34:27;10.48;;;5.70;;
34902;SDS011;21114;44.840;0.214;2024-01-10T00:36:53;6.20;;;4.03;;
34902;SDS011;21114;44.840;0.214;2024-01-10T00:39:19;4.97;;;3.75;;
34902;SDS011;21114;44.840;0.214;2024-01-10T00:41:45;4.45;;;3.92;;
34902;SDS011;21114;44.840;0.214;2024-01-10T00:44:11;4.93;;;3.75;;
34902;SDS011;21114;44.840;0.214;2024-01-10T00:46:37;7.80;;;4.05;;
34902;SDS011;21114;44.840;0.214;2024-01-10T00:49:03;6.47;;;5.35;;
34902;SDS011;21114;44.840;0.214;2024-01-10T00:51:29;6.88;;;4.35;;
34902;SDS011;21114;44.840;0.214;2024-01-10T00:53:55;4.80;;;3.90;;
34902;SDS011;21114;44.840;0.214;2024-01-10T00:56:21;5.68;;;3.70;;
34902;SDS011;21114;44.840;0.214;2024-01-10T00:58:47;6.30;;;4.32;;
34902;SDS011;21114;44.840;0.214;2024-01-10T01:01:13;5.38;;;3.42;;
34902;SDS011;21114;44.840;0.214;2024-01-10T01:03:40;6.63;;;4.05;;
34902;SDS011;21114;44.840;0.214;2024-01-10T01:06:06;7.10;;;4.60;;
34902;SDS011;21114;44.840;0.214;2024-01-10T01:08:32;6.35;;;4.13;;
34902;SDS011;21114;44.840;0.214;2024-01-10T01:10:58;6.57;;;4.03;;
34902;SDS011;21114;44.840;0.214;2024-01-10T01:13:24;5.28;;;3.72;;
34902;SDS011;21114;44.840;0.214;2024-01-10T01:15:50;5.85;;;4.47;;
34902;SDS011;21114;44.840;0.214;2024-01-10T01:18:16;4.75;;;3.38;;
34902;SDS011;21114;44.840;0.214;2024-01-10T01:20:43;6.00;;;4.05;;
34902;SDS011;21114;44.840;0.214;2024-01-10T01:23:09;4.80;;;4.15;;
34902;SDS011;21114;44.840;0.214;2024-01-10T01:25:35;3.80;;;3.33;;
34902;SDS011;21114;44.840;0.214;2024-01-10T01:28:01;5.65;;;4.38;;
34902;SDS011;21114;44.840;0.214;2024-01-10T01:30:27;5.60;;;4.13;;
34902;SDS011;21114;44.840;0.214;2024-01-10T01:32:53;6.25;;;4.20;;
34902;SDS011;21114;44.840;0.214;2024-01-10T01:35:19;5.18;;;3.60;;
34902;SDS011;21114;44.840;0.214;2024-01-10T01:37:47;6.47;;;4.70;;
34902;SDS011;21114;44.840;0.214;2024-01-10T01:40:13;7.53;;;4.78;;
34902;SDS011;21114;44.840;0.214;2024-01-10T01:42:39;5.90;;;3.72;;
34902;SDS011;21114;44.840;0.214;2024-01-10T01:45:05;5.13;;;4.15;;
34902;SDS011;21114;44.840;0.214;2024-01-10T01:47:32;6.30;;;4.35;;
34902;SDS011;21114;44.840;0.214;2024-01-10T01:49:58;5.05;;;3.83;;
34902;SDS011;21114;44.840;0.214;2024-01-10T01:52:24;6.60;;;4.40;;
34902;SDS011;21114;44.840;0.214;2024-01-10T01:55:39;6.65;;;4.47;;
34902;SDS011;21114;44.840;0.214;2024-01-10T01:58:05;6.43;;;5.20;;
34902;SDS011;21114;44.840;0.214;2024-01-10T02:00:32;7.10;;;4.43;;
34902;SDS011;21114;44.840;0.214;2024-01-10T02:02:58;6.15;;;4.45;;
34902;SDS011;21114;44.840;0.214;2024-01-10T02:06:13;9.88;;;6.63;;
34902;SDS011;21114;44.840;0.214;2024-01-10T02:08:39;6.93;;;4.57;;
34902;SDS011;21114;44.840;0.214;2024-01-10T02:11:06;6.63;;;4.90;;
34902;SDS011;21114;44.840;0.214;2024-01-10T02:13:32;9.10;;;5.68;;
34902;SDS011;21114;44.840;0.214;2024-01-10T02:15:58;5.50;;;4.25;;
34902;SDS011;21114;44.840;0.214;2024-01-10T02:18:25;7.15;;;4.80;;
34902;SDS011;21114;44.840;0.214;2024-01-10T02:20:51;6.78;;;5.03;;
34902;SDS011;21114;44.840;0.214;2024-01-10T02:23:17;6.00;;;4.55;;
34902;SDS011;21114;44.840;0.214;2024-01-10T02:25:43;6.50;;;5.38;;
34902;SDS011;21114;44.840;0.214;2024-01-10T02:28:10;6.25;;;4.88;;
34902;SDS011;21114;44.840;0.214;2024-01-10T02:30:36;7.88;;;5.30;;
34902;SDS011;21114;44.840;0.214;2024-01-10T02:33:51;6.72;;;5.15;;
34902;SDS011;21114;44.840;0.214;2024-01-10T02:36:17;7.28;;;5.18;;
34902;SDS011;21114;44.840;0.214;2024-01-10T02:38:43;8.32;;;5.35;;
34902;SDS011;21114;44.840;0.214;2024-01-10T02:41:09;8.43;;;6.20;;
34902;SDS011;21114;44.840;0.214;2024-01-10T02:43:35;6.70;;;5.20;;
34902;SDS011;21114;44.840;0.214;2024-01-10T02:46:01;7.25;;;5.20;;
34902;SDS011;21114;44.840;0.214;2024-01-10T02:48:27;10.07;;;6.35;;
34902;SDS011;21114;44.840;0.214;2024-01-10T02:50:53;7.38;;;5.65;;
34902;SDS011;21114;44.840;0.214;2024-01-10T02:53:20;6.75;;;5.20;;
34902;SDS011;21114;44.840;0.214;2024-01-10T02:55:46;9.20;;;5.78;;
34902;SDS011;21114;44.840;0.214;2024-01-10T02:58:14;8.52;;;6.88;;
34902;SDS011;21114;44.840;0.214;2024-01-10T03:00:40;9.10;;;5.45;;
34902;SDS011;21114;44.840;0.214;2024-01-10T03:03:06;6.60;;;5.78;;
34902;SDS011;21114;44.840;0.214;2024-01-10T03:05:32;7.65;;;5.35;;
34902;SDS011;21114;44.840;0.214;2024-01-10T03:07:58;7.55;;;5.07;;
34902;SDS011;21114;44.840;0.214;2024-01-10T03:10:26;9.13;;;6.13;;
34902;SDS011;21114;44.840;0.214;2024-01-10T03:12:53;7.20;;;5.55;;
34902;SDS011;21114;44.840;0.214;2024-01-10T03:15:19;7.78;;;5.05;;
34902;SDS011;21114;44.840;0.214;2024-01-10T03:17:46;6.45;;;4.78;;
34902;SDS011;21114;44.840;0.214;2024-01-10T03:21:00;7.50;;;5.70;;
34902;SDS011;21114;44.840;0.214;2024-01-10T03:23:26;7.20;;;5.53;;
34902;SDS011;21114;44.840;0.214;2024-01-10T03:25:52;6.32;;;4.68;;
34902;SDS011;21114;44.840;0.214;2024-01-10T03:28:18;8.50;;;5.28;;
34902;SDS011;21114;44.840;0.214;2024-01-10T03:30:44;8.27;;;6.22;;
34902;SDS011;21114;44.840;0.214;2024-01-10T03:33:10;6.35;;;5.35;;
34902;SDS011;21114;44.840;0.214;2024-01-10T03:35:36;6.05;;;4.40;;
34902;SDS011;21114;44.840;0.214;2024-01-10T03:38:03;8.32;;;6.22;;
34902;SDS011;21114;44.840;0.214;2024-01-10T03:40:29;5.75;;;4.82;;
34902;SDS011;21114;44.840;0.214;2024-01-10T03:42:55;5.53;;;4.70;;
34902;SDS011;21114;44.840;0.214;2024-01-10T03:45:21;7.07;;;4.47;;
34902;SDS011;21114;44.840;0.214;2024-01-10T03:47:48;7.53;;;4.95;;
34902;SDS011;21114;44.840;0.214;2024-01-10T03:50:18;7.35;;;4.45;;
34902;SDS011;21114;44.840;0.214;2024-01-10T03:53:33;6.80;;;5.38;;
34902;SDS011;21114;44.840;0.214;2024-01-10T03:55:59;6.03;;;4.63;;
34902;SDS011;21114;44.840;0.214;2024-01-10T03:58:25;8.43;;;4.70;;
34902;SDS011;21114;44.840;0.214;2024-01-10T04:00:51;7.75;;;5.40;;
34902;SDS011;21114;44.840;0.214;2024-01-10T04:03:17;6.85;;;4.95;;
34902;SDS011;21114;44.840;0.214;2024-01-10T04:05:43;8.80;;;5.50;;
34902;SDS011;21114;44.840;0.214;2024-01-10T04:08:09;11.93;;;7.00;;
34902;SDS011;21114;44.840;0.214;2024-01-10T04:10:36;7.35;;;4.63;;
34902;SDS011;21114;44.840;0.214;2024-01-10T04:13:02;6.03;;;4.57;;
34902;SDS011;21114;44.840;0.214;2024-01-10T04:15:28;5.70;;;5.00;;
34902;SDS011;21114;44.840;0.214;2024-01-10T04:17:54;7.80;;;5.65;;
34902;SDS011;21114;44.840;0.214;2024-01-10T04:20:20;6.93;;;5.72;;
34902;SDS011;21114;44.840;0.214;2024-01-10T04:22:46;6.25;;;5.10;;
34902;SDS011;21114;44.840;0.214;2024-01-10T04:25:12;7.03;;;5.82;;
34902;SDS011;21114;44.840;0.214;2024-01-10T04:27:38;5.93;;;5.07;;
34902;SDS011;21114;44.840;0.214;2024-01-10T04:30:05;8.82;;;6.60;;
34902;SDS011;21114;44.840;0.214;2024-01-10T04:33:19;7.65;;;5.78;;
34902;SDS011;21114;44.840;0.214;2024-01-10T04:35:45;7.00;;;5.57;;
34902;SDS011;21114;44.840;0.214;2024-01-10T04:38:11;6.20;;;4.20;;
34902;SDS011;21114;44.840;0.214;2024-01-10T04:40:37;6.00;;;4.82;;
34902;SDS011;21114;44.840;0.214;2024-01-10T04:43:03;6.63;;;5.18;;
34902;SDS011;21114;44.840;0.214;2024-01-10T04:45:30;6.05;;;4.88;;
34902;SDS011;21114;44.840;0.214;2024-01-10T04:47:56;6.25;;;4.80;;
34902;SDS011;21114;44.840;0.214;2024-01-10T04:50:22;6.50;;;5.10;;
34902;SDS011;21114;44.840;0.214;2024-01-10T04:52:48;8.73;;;6.35;;
34902;SDS011;21114;44.840;0.214;2024-01-10T04:55:14;7.65;;;5.57;;
34902;SDS011;21114;44.840;0.214;2024-01-10T04:57:40;6.53;;;4.85;;
34902;SDS011;21114;44.840;0.214;2024-01-10T05:00:06;6.45;;;5.05;;
34902;SDS011;21114;44.840;0.214;2024-01-10T05:02:32;6.93;;;4.63;;
34902;SDS011;21114;44.840;0.214;2024-01-10T05:04:58;9.45;;;6.10;;
34902;SDS011;21114;44.840;0.214;2024-01-10T05:07:24;6.45;;;4.15;;
34902;SDS011;21114;44.840;0.214;2024-01-10T05:09:51;5.57;;;4.75;;
34902;SDS011;21114;44.840;0.214;2024-01-10T05:12:17;5.70;;;4.47;;
34902;SDS011;21114;44.840;0.214;2024-01-10T05:14:43;5.68;;;3.92;;
34902;SDS011;21114;44.840;0.214;2024-01-10T05:17:09;5.45;;;3.85;;
34902;SDS011;21114;44.840;0.214;2024-01-10T05:19:35;7.38;;;4.57;;
34902;SDS011;21114;44.840;0.214;2024-01-10T05:22:01;7.22;;;4.63;;
34902;SDS011;21114;44.840;0.214;2024-01-10T05:24:27;9.77;;;6.05;;
34902;SDS011;21114;44.840;0.214;2024-01-10T05:26:53;5.70;;;5.10;;
34902;SDS011;21114;44.840;0.214;2024-01-10T05:29:19;7.25;;;4.90;;
34902;SDS011;21114;44.840;0.214;2024-01-10T05:31:47;7.40;;;4.43;;
34902;SDS011;21114;44.840;0.214;2024-01-10T05:34:13;8.25;;;6.90;;
34902;SDS011;21114;44.840;0.214;2024-01-10T05:36:39;8.40;;;6.10;;
34902;SDS011;21114;44.840;0.214;2024-01-10T05:39:05;7.25;;;5.18;;
34902;SDS011;21114;44.840;0.214;2024-01-10T05:41:31;6.15;;;4.68;;
34902;SDS011;21114;44.840;0.214;2024-01-10T05:43:57;6.03;;;4.25;;
34902;SDS011;21114;44.840;0.214;2024-01-10T05:46:23;6.82;;;4.82;;
34902;SDS011;21114;44.840;0.214;2024-01-10T05:48:49;6.38;;;4.95;;
34902;SDS011;21114;44.840;0.214;2024-01-10T05:51:15;7.03;;;5.40;;
34902;SDS011;21114;44.840;0.214;2024-01-10T05:53:41;5.95;;;5.20;;
34902;SDS011;21114;44.840;0.214;2024-01-10T05:56:07;8.77;;;4.95;;
34902;SDS011;21114;44.840;0.214;2024-01-10T05:58:33;7.70;;;5.68;;
34902;SDS011;21114;44.840;0.214;2024-01-10T06:01:00;8.15;;;5.63;;
34902;SDS011;21114;44.840;0.214;2024-01-10T06:03:26;7.07;;;5.75;;
34902;SDS011;21114;44.840;0.214;2024-01-10T06:05:52;4.60;;;4.00;;
34902;SDS011;21114;44.840;0.214;2024-01-10T06:08:18;11.07;;;6.45;;
34902;SDS011;21114;44.840;0.214;2024-01-10T06:10:45;7.57;;;5.47;;
34902;SDS011;21114;44.840;0.214;2024-01-10T06:13:11;7.35;;;5.50;;
34902;SDS011;21114;44.840;0.214;2024-01-10T06:15:37;7.60;;;5.30;;
34902;SDS011;21114;44.840;0.214;2024-01-10T06:18:03;7.28;;;5.35;;
34902;SDS011;21114;44.840;0.214;2024-01-10T06:20:29;7.88;;;5.60;;
34902;SDS011;21114;44.840;0.214;2024-01-10T06:22:56;6.40;;;4.78;;
34902;SDS011;21114;44.840;0.214;2024-01-10T06:25:23;7.60;;;5.28;;
34902;SDS011;21114;44.840;0.214;2024-01-10T06:27:49;8.57;;;5.20;;
34902;SDS011;21114;44.840;0.214;2024-01-10T06:30:15;6.88;;;4.57;;
34902;SDS011;21114;44.840;0.214;2024-01-10T06:32:41;5.65;;;4.32;;
34902;SDS011;21114;44.840;0.214;2024-01-10T06:35:07;5.43;;;4.32;;
34902;SDS011;21114;44.840;0.214;2024-01-10T06:37:34;10.10;;;5.00;;
34902;SDS011;21114;44.840;0.214;2024-01-10T06:40:00;6.57;;;4.53;;
34902;SDS011;21114;44.840;0.214;2024-01-10T06:42:29;5.85;;;4.75;;
34902;SDS011;21114;44.840;0.214;2024-01-10T06:44:55;7.47;;;5.85;;
34902;SDS011;21114;44.840;0.214;2024-01-10T06:47:21;13.85;;;6.70;;
34902;SDS011;21114;44.840;0.214;2024-01-10T06:49:47;7.18;;;5.10;;
34902;SDS011;21114;44.840;0.214;2024-01-10T06:52:13;5.93;;;4.47;;
34902;SDS011;21114;44.840;0.214;2024-01-10T06:54:39;9.68;;;6.30;;
34902;SDS011;21114;44.840;0.214;2024-01-10T06:57:05;9.90;;;6.03;;
34902;SDS011;21114;44.840;0.214;2024-01-10T06:59:32;10.45;;;6.53;;
34902;SDS011;21114;44.840;0.214;2024-01-10T07:01:58;10.10;;;5.82;;
34902;SDS011;21114;44.840;0.214;2024-01-10T07:04:26;8.05;;;6.35;;
34902;SDS011;21114;44.840;0.214;2024-01-10T07:06:53;8.20;;;6.78;;
34902;SDS011;21114;44.840;0.214;2024-01-10T07:09:19;7.35;;;5.90;;
34902;SDS011;21114;44.840;0.214;2024-01-10T07:11:48;7.47;;;6.13;;
34902;SDS011;21114;44.840;0.214;2024-01-10T07:14:34;8.18;;;5.95;;
34902;SDS011;21114;44.840;0.214;2024-01-10T07:17:00;6.88;;;4.90;;
34902;SDS011;21114;44.840;0.214;2024-01-10T07:19:26;8.40;;;5.30;;
34902;SDS011;21114;44.840;0.214;2024-01-10T07:21:52;7.95;;;6.03;;
34902;SDS011;21114;44.840;0.214;2024-01-10T07:24:20;7.55;;;5.85;;
34902;SDS011;21114;44.840;0.214;2024-01-10T07:26:46;7.82;;;5.97;;
34902;SDS011;21114;44.840;0.214;2024-01-10T07:29:12;12.93;;;6.50;;
34902;SDS011;21114;44.840;0.214;2024-01-10T07:31:38;7.30;;;5.40;;
34902;SDS011;21114;44.840;0.214;2024-01-10T07:34:05;10.20;;;5.82;;
34902;SDS011;21114;44.840;0.214;2024-01-10T07:36:32;6.30;;;4.93;;
34902;SDS011;21114;44.840;0.214;2024-01-10T07:39:47;7.72;;;5.70;;
34902;SDS011;21114;44.840;0.214;2024-01-10T07:42:15;8.27;;;6.60;;
34902;SDS011;21114;44.840;0.214;2024-01-10T07:44:43;9.50;;;6.90;;
34902;SDS011;21114;44.840;0.214;2024-01-10T07:47:09;8.30;;;6.38;;
34902;SDS011;21114;44.840;0.214;2024-01-10T07:49:35;13.00;;;6.85;;
34902;SDS011;21114;44.840;0.214;2024-01-10T07:52:03;10.35;;;6.60;;
34902;SDS011;21114;44.840;0.214;2024-01-10T07:55:03;9.93;;;7.25;;
34902;SDS011;21114;44.840;0.214;2024-01-10T07:57:33;10.85;;;6.95;;
34902;SDS011;21114;44.840;0.214;2024-01-10T08:00:00;9.05;;;6.53;;
34902;SDS011;21114;44.840;0.214;2024-01-10T08:02:28;9.07;;;6.18;;
34902;SDS011;21114;44.840;0.214;2024-01-10T08:04:58;7.57;;;5.07;;
34902;SDS011;21114;44.840;0.214;2024-01-10T08:07:24;9.35;;;6.88;;
34902;SDS011;21114;44.840;0.214;2024-01-10T08:09:50;7.72;;;6.60;;
34902;SDS011;21114;44.840;0.214;2024-01-10T08:12:16;8.25;;;6.03;;
34902;SDS011;21114;44.840;0.214;2024-01-10T08:14:43;8.63;;;5.95;;
34902;SDS011;21114;44.840;0.214;2024-01-10T08:17:15;7.90;;;5.32;;
34902;SDS011;21114;44.840;0.214;2024-01-10T08:19:41;6.88;;;5.57;;
34902;SDS011;21114;44.840;0.214;2024-01-10T08:22:56;6.22;;;5.30;;
34902;SDS011;21114;44.840;0.214;2024-01-10T08:25:22;6.50;;;5.72;;
34902;SDS011;21114;44.840;0.214;2024-01-10T08:27:48;7.50;;;5.10;;
34902;SDS011;21114;44.840;0.214;2024-01-10T08:30:17;11.63;;;6.70;;
34902;SDS011;21114;44.840;0.214;2024-01-10T08:32:43;11.38;;;6.85;;
34902;SDS011;21114;44.840;0.214;2024-01-10T08:35:09;9.70;;;6.07;;
34902;SDS011;21114;44.840;0.214;2024-01-10T08:37:36;6.88;;;5.18;;
34902;SDS011;21114;44.840;0.214;2024-01-10T08:40:02;7.18;;;6.25;;
34902;SDS011;21114;44.840;0.214;2024-01-10T08:42:34;11.73;;;6.38;;
34902;SDS011;21114;44.840;0.214;2024-01-10T08:45:01;11.48;;;6.18;;
34902;SDS011;21114;44.840;0.214;2024-01-10T08:47:27;12.07;;;7.35;;
34902;SDS011;21114;44.840;0.214;2024-01-10T08:49:56;11.77;;;7.22;;
34902;SDS011;21114;44.840;0.214;2024-01-10T08:52:22;15.23;;;6.47;;
34902;SDS011;21114;44.840;0.214;2024-01-10T08:54:48;7.60;;;5.75;;
34902;SDS011;21114;44.840;0.214;2024-01-10T08:57:14;9.43;;;6.65;;
34902;SDS011;21114;44.840;0.214;2024-01-10T08:59:41;11.27;;;6.68;;
34902;SDS011;21114;44.840;0.214;2024-01-10T09:02:55;10.32;;;8.20;;
34902;SDS011;21114;44.840;0.214;2024-01-10T09:05:22;10.13;;;7.88;;
34902;SDS011;21114;44.840;0.214;2024-01-10T09:07:48;11.38;;;7.57;;
34902;SDS011;21114;44.840;0.214;2024-01-10T09:10:14;10.68;;;9.50;;
34902;SDS011;21114;44.840;0.214;2024-01-10T09:12:41;10.35;;;8.52;;
34902;SDS011;21114;44.840;0.214;2024-01-10T09:15:56;9.48;;;7.60;;
34902;SDS011;21114;44.840;0.214;2024-01-10T09:18:22;11.43;;;9.02;;
34902;SDS011;21114;44.840;0.214;2024-01-10T09:20:48;11.77;;;7.57;;
34902;SDS011;21114;44.840;0.214;2024-01-10T09:23:14;10.70;;;7.70;;
34902;SDS011;21114;44.840;0.214;2024-01-10T09:25:40;10.25;;;7.25;;
34902;SDS011;21114;44.840;0.214;2024-01-10T09:28:06;13.80;;;8.25;;
34902;SDS011;21114;44.840;0.214;2024-01-10T09:30:32;9.25;;;7.95;;
34902;SDS011;21114;44.840;0.214;2024-01-10T09:32:59;11.32;;;8.00;;
34902;SDS011;21114;44.840;0.214;2024-01-10T09:35:25;10.80;;;8.00;;
34902;SDS011;21114;44.840;0.214;2024-01-10T09:37:51;11.88;;;7.85;;
34902;SDS011;21114;44.840;0.214;2024-01-10T09:40:18;11.98;;;8.70;;
34902;SDS011;21114;44.840;0.214;2024-01-10T09:42:47;11.20;;;8.65;;
34902;SDS011;21114;44.840;0.214;2024-01-10T09:46:03;13.75;;;8.75;;
34902;SDS011;21114;44.840;0.214;2024-01-10T09:48:30;9.88;;;7.95;;
34902;SDS011;21114;44.840;0.214;2024-01-10T09:50:56;10.80;;;8.13;;
34902;SDS011;21114;44.840;0.214;2024-01-10T09:53:23;9.50;;;7.75;;
34902;SDS011;21114;44.840;0.214;2024-01-10T09:56:23;12.68;;;10.15;;
34902;SDS011;21114;44.840;0.214;2024-01-10T09:58:49;13.15;;;10.40;;
34902;SDS011;21114;44.840;0.214;2024-01-10T10:01:18;11.45;;;10.27;;
34902;SDS011;21114;44.840;0.214;2024-01-10T10:03:45;12.77;;;9.48;;
34902;SDS011;21114;44.840;0.214;2024-01-10T10:06:11;12.68;;;10.15;;
34902;SDS011;21114;44.840;0.214;2024-01-10T10:08:38;12.07;;;10.25;;
34902;SDS011;21114;44.840;0.214;2024-01-10T10:11:12;14.38;;;10.55;;
34902;SDS011;21114;44.840;0.214;2024-01-10T10:13:41;13.68;;;10.88;;
34902;SDS011;21114;44.840;0.214;2024-01-10T10:16:08;13.90;;;10.30;;
34902;SDS011;21114;44.840;0.214;2024-01-10T10:18:40;16.58;;;12.65;;
34902;SDS011;21114;44.840;0.214;2024-01-10T10:21:08;12.57;;;10.48;;
34902;SDS011;21114;44.840;0.214;2024-01-10T10:23:36;13.82;;;9.80;;
34902;SDS011;21114;44.840;0.214;2024-01-10T10:26:12;13.25;;;9.88;;
34902;SDS011;21114;44.840;0.214;2024-01-10T10:28:44;12.85;;;9.45;;
34902;SDS011;21114;44.840;0.214;2024-01-10T10:31:10;13.57;;;9.30;;
34902;SDS011;21114;44.840;0.214;2024-01-10T10:33:37;12.40;;;9.13;;
34902;SDS011;21114;44.840;0.214;2024-01-10T10:36:03;10.82;;;9.38;;
34902;SDS011;21114;44.840;0.214;2024-01-10T10:38:29;11.70;;;9.00;;
34902;SDS011;21114;44.840;0.214;2024-01-10T10:40:55;10.90;;;7.90;;
34902;SDS011;21114;44.840;0.214;2024-01-10T10:44:12;9.38;;;7.30;;
34902;SDS011;21114;44.840;0.214;2024-01-10T10:47:33;11.32;;;7.97;;
34902;SDS011;21114;44.840;0.214;2024-01-10T10:50:37;10.38;;;8.27;;
34902;SDS011;21114;44.840;0.214;2024-01-10T10:53:03;12.75;;;7.82;;
34902;SDS011;21114;44.840;0.214;2024-01-10T10:55:30;9.05;;;7.38;;
34902;SDS011;21114;44.840;0.214;2024-01-10T10:58:45;10.85;;;8.38;;
34902;SDS011;21114;44.840;0.214;2024-01-10T11:01:12;11.77;;;8.00;;
34902;SDS011;21114;44.840;0.214;2024-01-10T11:04:26;10.30;;;8.65;;
34902;SDS011;21114;44.840;0.214;2024-01-10T11:07:43;10.68;;;7.65;;
34902;SDS011;21114;44.840;0.214;2024-01-10T11:10:58;15.98;;;10.25;;
34902;SDS011;21114;44.840;0.214;2024-01-10T11:23:51;10.02;;;7.40;;
34902;SDS011;21114;44.840;0.214;2024-01-10T11:27:16;9.00;;;6.72;;
34902;SDS011;21114;44.840;0.214;2024-01-10T11:30:37;9.15;;;7.55;;
34902;SDS011;21114;44.840;0.214;2024-01-10T11:33:52;10.18;;;7.18;;
34902;SDS011;21114;44.840;0.214;2024-01-10T11:36:18;8.95;;;6.65;;
34902;SDS011;21114;44.840;0.214;2024-01-10T11:39:34;9.25;;;6.85;;
34902;SDS011;21114;44.840;0.214;2024-01-10T11:42:49;8.60;;;7.43;;
34902;SDS011;21114;44.840;0.214;2024-01-10T11:46:05;10.20;;;7.53;;
34902;SDS011;21114;44.840;0.214;2024-01-10T11:48:32;8.75;;;7.53;;
34902;SDS011;21114;44.840;0.214;2024-01-10T11:50:58;8.77;;;7.00;;
34902;SDS011;21114;44.840;0.214;2024-01-10T11:53:38;11.35;;;7.63;;
34902;SDS011;21114;44.840;0.214;2024-01-10T11:56:41;8.82;;;7.60;;
34902;SDS011;21114;44.840;0.214;2024-01-10T11:59:59;9.45;;;7.93;;
34902;SDS011;21114;44.840;0.214;2024-01-10T12:02:26;8.80;;;6.75;;
34902;SDS011;21114;44.840;0.214;2024-01-10T12:04:53;9.63;;;7.50;;
34902;SDS011;21114;44.840;0.214;2024-01-10T12:07:40;9.13;;;7.20;;
34902;SDS011;21114;44.840;0.214;2024-01-10T12:10:06;10.88;;;8.43;;
34902;SDS011;21114;44.840;0.214;2024-01-10T12:12:35;12.13;;;8.65;;
34902;SDS011;21114;44.840;0.214;2024-01-10T12:15:01;9.45;;;7.55;;
34902;SDS011;21114;44.840;0.214;2024-01-10T12:17:27;9.18;;;7.90;;
34902;SDS011;21114;44.840;0.214;2024-01-10T12:19:54;9.93;;;6.97;;
34902;SDS011;21114;44.840;0.214;2024-01-10T12:22:20;9.68;;;7.68;;
34902;SDS011;21114;44.840;0.214;2024-01-10T12:24:49;8.75;;;6.97;;
34902;SDS011;21114;44.840;0.214;2024-01-10T12:28:04;8.15;;;6.88;;
34902;SDS011;21114;44.840;0.214;2024-01-10T12:30:30;11.93;;;8.15;;
34902;SDS011;21114;44.840;0.214;2024-01-10T12:32:59;9.20;;;7.60;;
34902;SDS011;21114;44.840;0.214;2024-01-10T12:36:13;8.45;;;7.15;;
34902;SDS011;21114;44.840;0.214;2024-01-10T12:38:39;11.23;;;7.45;;
34902;SDS011;21114;44.840;0.214;2024-01-10T12:41:06;10.85;;;8.25;;
34902;SDS011;21114;44.840;0.214;2024-01-10T12:43:35;11.43;;;8.40;;
34902;SDS011;21114;44.840;0.214;2024-01-10T12:49:22;9.07;;;7.40;;
34902;SDS011;21114;44.840;0.214;2024-01-10T12:51:48;9.23;;;7.38;;
34902;SDS011;21114;44.840;0.214;2024-01-10T12:54:17;10.25;;;8.50;;
34902;SDS011;21114;44.840;0.214;2024-01-10T12:57:32;9.98;;;7.25;;
34902;SDS011;21114;44.840;0.214;2024-01-10T12:59:58;8.93;;;7.20;;
34902;SDS011;21114;44.840;0.214;2024-01-10T13:02:24;8.38;;;6.90;;
34902;SDS011;21114;44.840;0.214;2024-01-10T13:04:50;10.35;;;7.50;;
34902;SDS011;21114;44.840;0.214;2024-01-10T13:07:17;10.60;;;7.30;;
34902;SDS011;21114;44.840;0.214;2024-01-10T13:09:43;10.35;;;7.45;;
34902;SDS011;21114;44.840;0.214;2024-01-10T13:12:09;7.93;;;6.35;;
34902;SDS011;21114;44.840;0.214;2024-01-10T13:14:35;9.27;;;7.53;;
34902;SDS011;21114;44.840;0.214;2024-01-10T13:17:01;11.55;;;8.40;;
34902;SDS011;21114;44.840;0.214;2024-01-10T13:19:29;10.05;;;7.45;;
34902;SDS011;21114;44.840;0.214;2024-01-10T13:21:55;10.30;;;8.13;;
34902;SDS011;21114;44.840;0.214;2024-01-10T13:24:21;9.35;;;7.88;;
34902;SDS011;21114;44.840;0.214;2024-01-10T13:26:47;10.57;;;7.60;;
34902;SDS011;21114;44.840;0.214;2024-01-10T13:29:13;9.90;;;8.35;;
34902;SDS011;21114;44.840;0.214;2024-01-10T13:31:39;8.40;;;6.97;;
34902;SDS011;21114;44.840;0.214;2024-01-10T13:34:05;6.57;;;5.88;;
34902;SDS011;21114;44.840;0.214;2024-01-10T13:36:32;9.57;;;7.65;;
34902;SDS011;21114;44.840;0.214;2024-01-10T13:38:58;8.35;;;7.25;;
34902;SDS011;21114;44.840;0.214;2024-01-10T13:41:24;10.57;;;7.75;;
34902;SDS011;21114;44.840;0.214;2024-01-10T13:43:50;8.85;;;7.10;;
34902;SDS011;21114;44.840;0.214;2024-01-10T13:46:16;8.27;;;6.20;;
34902;SDS011;21114;44.840;0.214;2024-01-10T13:48:42;7.57;;;5.85;;
34902;SDS011;21114;44.840;0.214;2024-01-10T13:51:08;9.80;;;6.68;;
34902;SDS011;21114;44.840;0.214;2024-01-10T13:53:34;9.75;;;7.55;;
34902;SDS011;21114;44.840;0.214;2024-01-10T13:56:02;9.30;;;7.05;;
34902;SDS011;21114;44.840;0.214;2024-01-10T13:58:28;9.05;;;6.60;;
34902;SDS011;21114;44.840;0.214;2024-01-10T14:00:54;10.20;;;7.18;;
34902;SDS011;21114;44.840;0.214;2024-01-10T14:03:20;8.57;;;6.78;;
34902;SDS011;21114;44.840;0.214;2024-01-10T14:05:47;8.52;;;6.60;;
34902;SDS011;21114;44.840;0.214;2024-01-10T14:08:13;8.80;;;7.32;;
34902;SDS011;21114;44.840;0.214;2024-01-10T14:10:40;9.52;;;6.88;;
34902;SDS011;21114;44.840;0.214;2024-01-10T14:13:07;9.30;;;8.35;;
34902;SDS011;21114;44.840;0.214;2024-01-10T14:15:33;9.63;;;6.72;;
34902;SDS011;21114;44.840;0.214;2024-01-10T14:17:59;7.88;;;6.47;;
34902;SDS011;21114;44.840;0.214;2024-01-10T14:20:25;8.57;;;7.30;;
34902;SDS011;21114;44.840;0.214;2024-01-10T14:22:51;9.02;;;6.72;;
34902;SDS011;21114;44.840;0.214;2024-01-10T14:25:17;9.95;;;8.63;;
34902;SDS011;21114;44.840;0.214;2024-01-10T14:27:44;12.82;;;9.85;;
34902;SDS011;21114;44.840;0.214;2024-01-10T14:30:10;14.60;;;10.88;;
34902;SDS011;21114;44.840;0.214;2024-01-10T14:32:36;10.90;;;8.48;;
34902;SDS011;21114;44.840;0.214;2024-01-10T14:35:03;11.27;;;8.23;;
34902;SDS011;21114;44.840;0.214;2024-01-10T14:37:29;11.38;;;8.27;;
34902;SDS011;21114;44.840;0.214;2024-01-10T14:39:56;10.88;;;8.50;;
34902;SDS011;21114;44.840;0.214;2024-01-10T14:42:23;12.85;;;9.63;;
34902;SDS011;21114;44.840;0.214;2024-01-10T14:44:49;12.45;;;9.10;;
34902;SDS011;21114;44.840;0.214;2024-01-10T14:47:15;11.52;;;8.90;;
34902;SDS011;21114;44.840;0.214;2024-01-10T14:49:41;10.88;;;8.35;;
34902;SDS011;21114;44.840;0.214;2024-01-10T14:52:07;12.07;;;9.25;;
34902;SDS011;21114;44.840;0.214;2024-01-10T14:54:33;9.70;;;7.57;;
34902;SDS011;21114;44.840;0.214;2024-01-10T14:56:59;10.80;;;7.85;;
34902;SDS011;21114;44.840;0.214;2024-01-10T14:59:25;12.32;;;7.50;;
34902;SDS011;21114;44.840;0.214;2024-01-10T15:01:51;11.60;;;8.27;;
34902;SDS011;21114;44.840;0.214;2024-01-10T15:04:17;8.32;;;6.93;;
34902;SDS011;21114;44.840;0.214;2024-01-10T15:06:46;9.07;;;7.63;;
34902;SDS011;21114;44.840;0.214;2024-01-10T15:09:34;8.85;;;7.65;;
34902;SDS011;21114;44.840;0.214;2024-01-10T15:12:06;9.35;;;8.23;;
34902;SDS011;21114;44.840;0.214;2024-01-10T15:15:21;9.35;;;7.45;;
34902;SDS011;21114;44.840;0.214;2024-01-10T15:17:47;10.13;;;8.38;;